ICE360R BIAR-BIKF
Flight info
| Callsign | ICE360R |
|---|---|
| Flight time | 0h 55m |
| Altitude | 20000 |
| Route | DEVUD DEVUD3K |
| Aircraft | DH8D/M-SDE2E3FGRY/H |
Departure
| Time | 2026-04-28 12:49 |
|---|---|
| Airport | Akureyri International Airport (BIAR) |
Arrival
| Time | 2026-04-28 13:45 |
|---|---|
| Airport | Keflavik International Airport (BIKF) |
| Time | Latitude | Longitude | Altitude | Speed | Heading |
|---|---|---|---|---|---|
| 2026-04-28 12:18 | 65.65421 | -18.07495 | 28 ft | 0 kts | 356° |
| 2026-04-28 12:43 | 65.65440 | -18.07470 | 29 ft | 2 kts | 52° |
| 2026-04-28 12:43 | 65.65462 | -18.07405 | 27 ft | 7 kts | 36° |
| 2026-04-28 12:43 | 65.65468 | -18.07395 | 26 ft | 0 kts | 41° |
| 2026-04-28 12:44 | 65.65485 | -18.07343 | 24 ft | 9 kts | 63° |
| 2026-04-28 12:44 | 65.65553 | -18.07205 | 17 ft | 16 kts | 11° |
| 2026-04-28 12:44 | 65.65685 | -18.07203 | 14 ft | 21 kts | 357° |
| 2026-04-28 12:45 | 65.65840 | -18.07227 | 12 ft | 23 kts | 355° |
| 2026-04-28 12:45 | 65.66008 | -18.07262 | 10 ft | 24 kts | 355° |
| 2026-04-28 12:45 | 65.66181 | -18.07293 | 7 ft | 26 kts | 354° |
| 2026-04-28 12:45 | 65.66362 | -18.07335 | 8 ft | 26 kts | 355° |
| 2026-04-28 12:46 | 65.66543 | -18.07367 | 8 ft | 26 kts | 356° |
| 2026-04-28 12:46 | 65.66721 | -18.07398 | 8 ft | 21 kts | 356° |
| 2026-04-28 12:46 | 65.66802 | -18.07437 | 8 ft | 11 kts | 327° |
| 2026-04-28 12:46 | 65.66852 | -18.07423 | 8 ft | 5 kts | 95° |
| 2026-04-28 12:47 | 65.66844 | -18.07412 | 8 ft | 0 kts | 184° |
| 2026-04-28 12:48 | 65.66836 | -18.07412 | 8 ft | 7 kts | 179° |
| 2026-04-28 12:48 | 65.66535 | -18.07362 | 9 ft | 86 kts | 176° |
| 2026-04-28 12:48 | 65.65738 | -18.07336 | 54 ft | 139 kts | 186° |
| 2026-04-28 12:49 | 65.64696 | -18.07264 | 442 ft | 156 kts | 174° |
| 2026-04-28 12:49 | 65.63631 | -18.06986 | 1112 ft | 161 kts | 177° |
| 2026-04-28 12:49 | 65.62442 | -18.06872 | 1487 ft | 184 kts | 178° |
| 2026-04-28 12:49 | 65.61152 | -18.06677 | 2100 ft | 189 kts | 177° |
| 2026-04-28 12:50 | 65.59858 | -18.06471 | 2712 ft | 191 kts | 177° |
| 2026-04-28 12:50 | 65.58566 | -18.06236 | 3434 ft | 186 kts | 177° |
| 2026-04-28 12:50 | 65.57307 | -18.06455 | 3987 ft | 187 kts | 202° |
| 2026-04-28 12:50 | 65.56280 | -18.08305 | 4651 ft | 186 kts | 220° |
| 2026-04-28 12:51 | 65.55370 | -18.10415 | 5375 ft | 182 kts | 220° |
| 2026-04-28 12:51 | 65.54749 | -18.12956 | 4860 ft | 222 kts | 278° |
| 2026-04-28 12:51 | 65.56091 | -18.14953 | 3400 ft | 266 kts | 8° |
| 2026-04-28 12:51 | 65.57806 | -18.13449 | 2671 ft | 265 kts | 28° |
| 2026-04-28 12:52 | 65.59491 | -18.11709 | 1987 ft | 268 kts | 16° |
| 2026-04-28 12:52 | 65.61282 | -18.11031 | 1711 ft | 252 kts | 5° |
| 2026-04-28 12:52 | 65.62992 | -18.10731 | 1256 ft | 247 kts | 2° |
| 2026-04-28 12:52 | 65.64638 | -18.10830 | 927 ft | 234 kts | 356° |
| 2026-04-28 12:53 | 65.66174 | -18.11137 | 747 ft | 207 kts | 22° |
| 2026-04-28 12:53 | 65.66705 | -18.08403 | 449 ft | 194 kts | 131° |
| 2026-04-28 12:53 | 65.65517 | -18.07110 | 430 ft | 199 kts | 173° |
| 2026-04-28 12:53 | 65.64723 | -18.05990 | 472 ft | 213 kts | 119° |
| 2026-04-28 12:54 | 65.65810 | -18.02616 | 567 ft | 244 kts | 349° |
| 2026-04-28 12:54 | 65.67454 | -18.03942 | 558 ft | 254 kts | 345° |
| 2026-04-28 12:54 | 65.67908 | -18.06751 | 363 ft | 201 kts | 214° |
| 2026-04-28 12:54 | 65.66465 | -18.07307 | 92 ft | 226 kts | 178° |
| 2026-04-28 12:55 | 65.64981 | -18.06988 | 759 ft | 197 kts | 179° |
| 2026-04-28 12:55 | 65.63734 | -18.07559 | 1272 ft | 193 kts | 203° |
| 2026-04-28 12:55 | 65.62630 | -18.09588 | 1306 ft | 205 kts | 218° |
| 2026-04-28 12:55 | 65.61420 | -18.11298 | 1672 ft | 202 kts | 199° |
| 2026-04-28 12:56 | 65.60098 | -18.12463 | 2303 ft | 202 kts | 199° |
| 2026-04-28 12:56 | 65.58807 | -18.13638 | 3061 ft | 199 kts | 200° |
| 2026-04-28 12:56 | 65.57520 | -18.14749 | 3766 ft | 199 kts | 199° |
| 2026-04-28 12:56 | 65.56245 | -18.15840 | 4563 ft | 194 kts | 199° |
| 2026-04-28 12:57 | 65.55016 | -18.17066 | 5289 ft | 193 kts | 213° |
| 2026-04-28 12:57 | 65.54048 | -18.19072 | 5919 ft | 186 kts | 220° |
| 2026-04-28 12:57 | 65.53072 | -18.21249 | 6473 ft | 191 kts | 220° |
| 2026-04-28 12:57 | 65.52119 | -18.23390 | 7202 ft | 190 kts | 220° |
| 2026-04-28 12:58 | 65.51182 | -18.25501 | 7997 ft | 186 kts | 220° |
| 2026-04-28 12:58 | 65.50232 | -18.27647 | 8685 ft | 187 kts | 220° |
| 2026-04-28 12:58 | 65.49318 | -18.29724 | 9453 ft | 184 kts | 220° |
| 2026-04-28 12:58 | 65.48395 | -18.31823 | 10099 ft | 185 kts | 220° |
| 2026-04-28 12:59 | 65.47467 | -18.33947 | 10718 ft | 188 kts | 220° |
| 2026-04-28 12:59 | 65.46525 | -18.36077 | 11369 ft | 189 kts | 220° |
| 2026-04-28 12:59 | 65.45586 | -18.38188 | 12013 ft | 187 kts | 219° |
| 2026-04-28 12:59 | 65.44629 | -18.40334 | 12571 ft | 188 kts | 220° |
| 2026-04-28 13:00 | 65.43669 | -18.42457 | 13100 ft | 189 kts | 220° |
| 2026-04-28 13:00 | 65.42712 | -18.44593 | 13615 ft | 192 kts | 220° |
| 2026-04-28 13:00 | 65.41737 | -18.46798 | 14172 ft | 190 kts | 219° |
| 2026-04-28 13:00 | 65.40785 | -18.48962 | 14575 ft | 196 kts | 221° |
| 2026-04-28 13:01 | 65.39810 | -18.51156 | 15183 ft | 191 kts | 219° |
| 2026-04-28 13:01 | 65.38833 | -18.53404 | 15555 ft | 197 kts | 221° |
| 2026-04-28 13:01 | 65.37859 | -18.55606 | 16100 ft | 193 kts | 220° |
| 2026-04-28 13:01 | 65.36887 | -18.57811 | 16518 ft | 196 kts | 219° |
| 2026-04-28 13:02 | 65.35809 | -18.59713 | 16884 ft | 195 kts | 205° |
| 2026-04-28 13:02 | 65.34554 | -18.60791 | 17334 ft | 195 kts | 203° |
| 2026-04-28 13:02 | 65.33288 | -18.62042 | 17693 ft | 196 kts | 205° |
| 2026-04-28 13:02 | 65.32084 | -18.63466 | 18177 ft | 194 kts | 207° |
| 2026-04-28 13:03 | 65.30894 | -18.65045 | 18428 ft | 199 kts | 210° |
| 2026-04-28 13:03 | 65.29733 | -18.66744 | 18926 ft | 195 kts | 210° |
| 2026-04-28 13:03 | 65.28587 | -18.68519 | 19212 ft | 198 kts | 212° |
| 2026-04-28 13:03 | 65.27463 | -18.70342 | 19637 ft | 196 kts | 213° |
| 2026-04-28 13:04 | 65.26341 | -18.72221 | 19936 ft | 198 kts | 212° |
| 2026-04-28 13:04 | 65.25214 | -18.74147 | 20073 ft | 207 kts | 214° |
| 2026-04-28 13:04 | 65.24033 | -18.76205 | 20033 ft | 213 kts | 213° |
| 2026-04-28 13:04 | 65.22828 | -18.78328 | 19987 ft | 217 kts | 215° |
| 2026-04-28 13:05 | 65.21632 | -18.80456 | 19942 ft | 218 kts | 215° |
| 2026-04-28 13:05 | 65.20406 | -18.82653 | 19888 ft | 219 kts | 215° |
| 2026-04-28 13:05 | 65.19187 | -18.84845 | 19841 ft | 220 kts | 215° |
| 2026-04-28 13:05 | 65.17972 | -18.87036 | 19797 ft | 221 kts | 215° |
| 2026-04-28 13:06 | 65.16747 | -18.89249 | 19788 ft | 220 kts | 214° |
| 2026-04-28 13:06 | 65.15548 | -18.91417 | 19787 ft | 219 kts | 214° |
| 2026-04-28 13:06 | 65.14336 | -18.93609 | 19785 ft | 218 kts | 214° |
| 2026-04-28 13:06 | 65.13135 | -18.95781 | 19777 ft | 218 kts | 214° |
| 2026-04-28 13:07 | 65.11939 | -18.97940 | 19770 ft | 217 kts | 216° |
| 2026-04-28 13:07 | 65.10736 | -19.00113 | 19773 ft | 216 kts | 216° |
| 2026-04-28 13:07 | 65.09540 | -19.02270 | 19775 ft | 215 kts | 215° |
| 2026-04-28 13:07 | 65.08756 | -19.03684 | 19786 ft | 215 kts | 216° |
| 2026-04-28 13:08 | 65.07179 | -19.06525 | 19783 ft | 214 kts | 214° |
| 2026-04-28 13:08 | 65.05995 | -19.08654 | 19777 ft | 213 kts | 216° |
| 2026-04-28 13:08 | 65.04820 | -19.10762 | 19771 ft | 213 kts | 214° |
| 2026-04-28 13:08 | 65.03639 | -19.12878 | 19775 ft | 213 kts | 214° |
| 2026-04-28 13:09 | 65.02455 | -19.15002 | 19779 ft | 213 kts | 215° |
| 2026-04-28 13:09 | 65.01274 | -19.17120 | 19788 ft | 212 kts | 215° |
| 2026-04-28 13:09 | 65.00111 | -19.19203 | 19785 ft | 212 kts | 214° |
| 2026-04-28 13:09 | 64.98940 | -19.21297 | 19783 ft | 212 kts | 215° |
| 2026-04-28 13:10 | 64.97768 | -19.23395 | 19781 ft | 211 kts | 214° |
| 2026-04-28 13:10 | 64.96588 | -19.25505 | 19789 ft | 211 kts | 214° |
| 2026-04-28 13:10 | 64.95428 | -19.27574 | 19787 ft | 211 kts | 214° |
| 2026-04-28 13:10 | 64.94260 | -19.29651 | 19786 ft | 211 kts | 215° |
| 2026-04-28 13:11 | 64.93089 | -19.31730 | 19797 ft | 211 kts | 215° |
| 2026-04-28 13:11 | 64.91911 | -19.33819 | 19797 ft | 211 kts | 215° |
| 2026-04-28 13:11 | 64.90748 | -19.35879 | 19791 ft | 211 kts | 214° |
| 2026-04-28 13:11 | 64.89573 | -19.37959 | 19803 ft | 211 kts | 214° |
| 2026-04-28 13:12 | 64.88400 | -19.40031 | 19801 ft | 212 kts | 215° |
| 2026-04-28 13:12 | 64.87220 | -19.42115 | 19788 ft | 213 kts | 215° |
| 2026-04-28 13:12 | 64.86045 | -19.44190 | 19789 ft | 214 kts | 214° |
| 2026-04-28 13:12 | 64.84857 | -19.46287 | 19796 ft | 214 kts | 215° |
| 2026-04-28 13:13 | 64.83571 | -19.48078 | 19819 ft | 214 kts | 207° |
| 2026-04-28 13:13 | 64.82275 | -19.49408 | 20572 ft | 197 kts | 205° |
| 2026-04-28 13:13 | 64.81041 | -19.50705 | 20972 ft | 195 kts | 207° |
| 2026-04-28 13:13 | 64.79802 | -19.52031 | 21328 ft | 194 kts | 206° |
| 2026-04-28 13:14 | 64.78544 | -19.53298 | 21455 ft | 202 kts | 206° |
| 2026-04-28 13:14 | 64.77222 | -19.54640 | 21414 ft | 214 kts | 207° |
| 2026-04-28 13:14 | 64.75969 | -19.56674 | 21392 ft | 224 kts | 216° |
| 2026-04-28 13:14 | 64.74651 | -19.58555 | 21660 ft | 221 kts | 206° |
| 2026-04-28 13:15 | 64.73233 | -19.59896 | 21710 ft | 228 kts | 207° |
| 2026-04-28 13:15 | 64.71910 | -19.62124 | 21645 ft | 235 kts | 216° |
| 2026-04-28 13:15 | 64.70696 | -19.64451 | 22156 ft | 224 kts | 217° |
| 2026-04-28 13:15 | 64.69435 | -19.66812 | 21862 ft | 241 kts | 215° |
| 2026-04-28 13:16 | 64.68119 | -19.69205 | 21788 ft | 241 kts | 215° |
| 2026-04-28 13:16 | 64.66802 | -19.71504 | 21234 ft | 233 kts | 214° |
| 2026-04-28 13:16 | 64.65537 | -19.73722 | 20792 ft | 224 kts | 216° |
| 2026-04-28 13:16 | 64.64329 | -19.75885 | 20139 ft | 222 kts | 212° |
| 2026-04-28 13:17 | 64.63113 | -19.78208 | 19449 ft | 238 kts | 218° |
| 2026-04-28 13:17 | 64.61949 | -19.80840 | 19815 ft | 222 kts | 220° |
| 2026-04-28 13:17 | 64.60819 | -19.83306 | 19624 ft | 222 kts | 217° |
| 2026-04-28 13:17 | 64.59721 | -19.85598 | 19728 ft | 213 kts | 217° |
| 2026-04-28 13:18 | 64.58607 | -19.87857 | 19784 ft | 213 kts | 217° |
| 2026-04-28 13:18 | 64.57474 | -19.90093 | 19799 ft | 215 kts | 216° |
| 2026-04-28 13:18 | 64.56316 | -19.92332 | 19814 ft | 216 kts | 215° |
| 2026-04-28 13:18 | 64.55147 | -19.94560 | 19814 ft | 218 kts | 217° |
| 2026-04-28 13:19 | 64.53982 | -19.96754 | 19816 ft | 219 kts | 216° |
| 2026-04-28 13:19 | 64.52785 | -19.98988 | 19815 ft | 220 kts | 215° |
| 2026-04-28 13:19 | 64.51593 | -20.01195 | 19823 ft | 220 kts | 215° |
| 2026-04-28 13:19 | 64.50391 | -20.03414 | 19827 ft | 221 kts | 214° |
| 2026-04-28 13:20 | 64.49204 | -20.05601 | 19844 ft | 221 kts | 215° |
| 2026-04-28 13:20 | 64.47991 | -20.07825 | 19864 ft | 221 kts | 215° |
| 2026-04-28 13:20 | 64.46782 | -20.10038 | 19840 ft | 223 kts | 215° |
| 2026-04-28 13:20 | 64.45571 | -20.12243 | 19834 ft | 224 kts | 214° |
| 2026-04-28 13:21 | 64.44344 | -20.14477 | 19844 ft | 224 kts | 214° |
| 2026-04-28 13:21 | 64.43111 | -20.16716 | 19827 ft | 225 kts | 216° |
| 2026-04-28 13:21 | 64.41896 | -20.18920 | 19823 ft | 225 kts | 215° |
| 2026-04-28 13:21 | 64.40663 | -20.21156 | 19829 ft | 225 kts | 214° |
| 2026-04-28 13:22 | 64.39444 | -20.23359 | 19833 ft | 225 kts | 215° |
| 2026-04-28 13:22 | 64.38200 | -20.25606 | 19836 ft | 225 kts | 214° |
| 2026-04-28 13:22 | 64.36970 | -20.27820 | 19835 ft | 225 kts | 216° |
| 2026-04-28 13:22 | 64.35748 | -20.30022 | 19837 ft | 225 kts | 215° |
| 2026-04-28 13:23 | 64.34518 | -20.32231 | 19851 ft | 224 kts | 214° |
| 2026-04-28 13:23 | 64.33269 | -20.34473 | 19404 ft | 234 kts | 215° |
| 2026-04-28 13:23 | 64.31977 | -20.36778 | 18878 ft | 238 kts | 216° |
| 2026-04-28 13:23 | 64.30675 | -20.39109 | 18493 ft | 237 kts | 214° |
| 2026-04-28 13:24 | 64.29383 | -20.41420 | 18172 ft | 235 kts | 214° |
| 2026-04-28 13:24 | 64.28246 | -20.44103 | 17841 ft | 240 kts | 232° |
| 2026-04-28 13:24 | 64.27801 | -20.47864 | 17583 ft | 249 kts | 250° |
| 2026-04-28 13:24 | 64.27598 | -20.51781 | 17288 ft | 244 kts | 250° |
| 2026-04-28 13:25 | 64.27411 | -20.55581 | 17015 ft | 237 kts | 251° |
| 2026-04-28 13:25 | 64.27227 | -20.59291 | 16736 ft | 228 kts | 250° |
| 2026-04-28 13:25 | 64.27049 | -20.62828 | 16470 ft | 220 kts | 249° |
| 2026-04-28 13:25 | 64.26873 | -20.66244 | 16212 ft | 214 kts | 249° |
| 2026-04-28 13:26 | 64.26697 | -20.69603 | 15966 ft | 208 kts | 249° |
| 2026-04-28 13:26 | 64.26522 | -20.72872 | 15716 ft | 203 kts | 248° |
| 2026-04-28 13:26 | 64.26354 | -20.76038 | 15474 ft | 197 kts | 248° |
| 2026-04-28 13:26 | 64.26189 | -20.79116 | 15243 ft | 192 kts | 248° |
| 2026-04-28 13:27 | 64.26025 | -20.82116 | 15039 ft | 192 kts | 248° |
| 2026-04-28 13:27 | 64.25845 | -20.85240 | 14816 ft | 202 kts | 249° |
| 2026-04-28 13:27 | 64.25658 | -20.88500 | 14578 ft | 212 kts | 249° |
| 2026-04-28 13:27 | 64.25462 | -20.91953 | 14321 ft | 221 kts | 250° |
| 2026-04-28 13:28 | 64.25263 | -20.95469 | 14068 ft | 230 kts | 250° |
| 2026-04-28 13:28 | 64.25055 | -20.99218 | 13796 ft | 238 kts | 251° |
| 2026-04-28 13:28 | 64.24844 | -21.02993 | 13525 ft | 244 kts | 252° |
| 2026-04-28 13:28 | 64.24625 | -21.06887 | 13242 ft | 249 kts | 252° |
| 2026-04-28 13:29 | 64.24402 | -21.10844 | 12955 ft | 253 kts | 252° |
| 2026-04-28 13:29 | 64.24174 | -21.14873 | 12650 ft | 254 kts | 252° |
| 2026-04-28 13:29 | 64.23949 | -21.18870 | 12349 ft | 251 kts | 252° |
| 2026-04-28 13:29 | 64.23725 | -21.22821 | 12060 ft | 249 kts | 252° |
| 2026-04-28 13:30 | 64.23502 | -21.26706 | 11773 ft | 247 kts | 252° |
| 2026-04-28 13:30 | 64.23276 | -21.30620 | 11480 ft | 246 kts | 253° |
| 2026-04-28 13:30 | 64.23049 | -21.34502 | 11188 ft | 246 kts | 252° |
| 2026-04-28 13:30 | 64.22823 | -21.38344 | 10906 ft | 245 kts | 253° |
| 2026-04-28 13:31 | 64.22370 | -21.46082 | 10336 ft | 244 kts | 252° |
| 2026-04-28 13:31 | 64.22141 | -21.49928 | 10040 ft | 243 kts | 254° |
| 2026-04-28 13:31 | 64.21912 | -21.53757 | 9756 ft | 243 kts | 253° |
| 2026-04-28 13:32 | 64.21682 | -21.57609 | 9472 ft | 242 kts | 253° |
| 2026-04-28 13:32 | 64.21452 | -21.61421 | 9195 ft | 242 kts | 254° |
| 2026-04-28 13:32 | 64.21220 | -21.65242 | 8916 ft | 246 kts | 253° |
| 2026-04-28 13:32 | 64.20975 | -21.69215 | 8619 ft | 255 kts | 253° |
| 2026-04-28 13:33 | 64.20723 | -21.73299 | 8319 ft | 262 kts | 254° |
| 2026-04-28 13:33 | 64.20477 | -21.77335 | 8005 ft | 252 kts | 253° |
| 2026-04-28 13:33 | 64.20242 | -21.81228 | 7716 ft | 237 kts | 253° |
| 2026-04-28 13:33 | 64.20019 | -21.84863 | 7466 ft | 228 kts | 253° |
| 2026-04-28 13:34 | 64.19800 | -21.88388 | 7215 ft | 221 kts | 253° |
| 2026-04-28 13:34 | 64.19584 | -21.91836 | 6963 ft | 214 kts | 252° |
| 2026-04-28 13:34 | 64.19375 | -21.95156 | 6722 ft | 208 kts | 252° |
| 2026-04-28 13:34 | 64.19170 | -21.98376 | 6474 ft | 202 kts | 252° |
| 2026-04-28 13:35 | 64.18973 | -22.01500 | 6232 ft | 197 kts | 252° |
| 2026-04-28 13:35 | 64.18784 | -22.04594 | 5960 ft | 193 kts | 252° |
| 2026-04-28 13:35 | 64.18601 | -22.07601 | 5645 ft | 190 kts | 252° |
| 2026-04-28 13:35 | 64.18424 | -22.10590 | 5333 ft | 189 kts | 253° |
| 2026-04-28 13:36 | 64.18243 | -22.13533 | 5025 ft | 188 kts | 252° |
| 2026-04-28 13:36 | 64.18050 | -22.16550 | 4740 ft | 193 kts | 253° |
| 2026-04-28 13:36 | 64.17841 | -22.19627 | 4477 ft | 197 kts | 252° |
| 2026-04-28 13:36 | 64.17625 | -22.22713 | 4237 ft | 199 kts | 253° |
| 2026-04-28 13:37 | 64.17395 | -22.25876 | 4009 ft | 201 kts | 253° |
| 2026-04-28 13:37 | 64.17160 | -22.29028 | 3790 ft | 202 kts | 253° |
| 2026-04-28 13:37 | 64.16922 | -22.32194 | 3574 ft | 202 kts | 253° |
| 2026-04-28 13:37 | 64.16679 | -22.35350 | 3426 ft | 203 kts | 253° |
| 2026-04-28 13:38 | 64.16427 | -22.38555 | 3303 ft | 204 kts | 253° |
| 2026-04-28 13:38 | 64.16176 | -22.41729 | 3179 ft | 206 kts | 252° |
| 2026-04-28 13:38 | 64.15917 | -22.44975 | 3053 ft | 208 kts | 253° |
| 2026-04-28 13:38 | 64.15653 | -22.48262 | 2930 ft | 209 kts | 253° |
| 2026-04-28 13:39 | 64.15392 | -22.51522 | 2838 ft | 209 kts | 253° |
| 2026-04-28 13:39 | 64.15133 | -22.54769 | 2606 ft | 208 kts | 252° |
| 2026-04-28 13:39 | 64.14864 | -22.58039 | 2349 ft | 208 kts | 253° |
| 2026-04-28 13:39 | 64.14592 | -22.61282 | 2096 ft | 208 kts | 253° |
| 2026-04-28 13:40 | 64.14316 | -22.64522 | 1842 ft | 205 kts | 253° |
| 2026-04-28 13:40 | 64.14038 | -22.67619 | 1567 ft | 193 kts | 249° |
| 2026-04-28 13:40 | 64.13424 | -22.70068 | 1346 ft | 169 kts | 213° |
| 2026-04-28 13:40 | 64.12367 | -22.70741 | 1500 ft | 162 kts | 175° |
| 2026-04-28 13:41 | 64.11346 | -22.69522 | 1576 ft | 172 kts | 144° |
| 2026-04-28 13:41 | 64.10486 | -22.67556 | 1599 ft | 181 kts | 136° |
| 2026-04-28 13:41 | 64.09795 | -22.65085 | 1527 ft | 184 kts | 127° |
| 2026-04-28 13:41 | 64.09172 | -22.62636 | 1279 ft | 172 kts | 128° |
| 2026-04-28 13:42 | 64.08516 | -22.60570 | 989 ft | 150 kts | 153° |
| 2026-04-28 13:42 | 64.07599 | -22.60340 | 929 ft | 133 kts | 194° |
| 2026-04-28 13:42 | 64.06623 | -22.60720 | 1191 ft | 155 kts | 184° |
| 2026-04-28 13:42 | 64.05486 | -22.60678 | 1264 ft | 162 kts | 179° |
| 2026-04-28 13:43 | 64.04417 | -22.60581 | 1223 ft | 146 kts | 181° |
| 2026-04-28 13:43 | 64.03428 | -22.60572 | 1049 ft | 143 kts | 181° |
| 2026-04-28 13:43 | 64.02467 | -22.60555 | 829 ft | 129 kts | 181° |
| 2026-04-28 13:43 | 64.01592 | -22.60561 | 683 ft | 126 kts | 182° |
| 2026-04-28 13:44 | 64.00735 | -22.60545 | 508 ft | 121 kts | 181° |
| 2026-04-28 13:44 | 63.99875 | -22.60545 | 347 ft | 122 kts | 182° |
| 2026-04-28 13:44 | 63.99019 | -22.60544 | 180 ft | 122 kts | 182° |
| 2026-04-28 13:44 | 63.98275 | -22.60559 | 160 ft | 82 kts | 180° |
| 2026-04-28 13:45 | 63.97832 | -22.60557 | 159 ft | 48 kts | 182° |
| 2026-04-28 13:45 | 63.97563 | -22.60570 | 155 ft | 26 kts | 179° |
| 2026-04-28 13:45 | 63.97444 | -22.60684 | 151 ft | 15 kts | 254° |
| 2026-04-28 13:45 | 63.97465 | -22.60914 | 148 ft | 14 kts | 306° |
| 2026-04-28 13:46 | 63.97557 | -22.60949 | 149 ft | 14 kts | 359° |
| 2026-04-28 13:46 | 63.97658 | -22.60948 | 151 ft | 15 kts | 0° |
| 2026-04-28 13:46 | 63.97834 | -22.60947 | 151 ft | 28 kts | 359° |
| 2026-04-28 13:46 | 63.98027 | -22.60948 | 155 ft | 26 kts | 1° |
| 2026-04-28 13:47 | 63.98206 | -22.60948 | 155 ft | 25 kts | 0° |
| 2026-04-28 13:47 | 63.98384 | -22.60955 | 153 ft | 25 kts | 358° |
| 2026-04-28 13:47 | 63.98562 | -22.60953 | 151 ft | 25 kts | 0° |
| 2026-04-28 13:47 | 63.98737 | -22.60949 | 151 ft | 24 kts | 359° |
| 2026-04-28 13:48 | 63.98912 | -22.60946 | 149 ft | 25 kts | 360° |
| 2026-04-28 13:48 | 63.99089 | -22.60948 | 147 ft | 22 kts | 1° |
| 2026-04-28 13:48 | 63.99166 | -22.60985 | 147 ft | 8 kts | 298° |
| 2026-04-28 13:48 | 63.99172 | -22.61116 | 147 ft | 11 kts | 269° |
| 2026-04-28 13:49 | 63.99172 | -22.61386 | 144 ft | 22 kts | 271° |
| 2026-04-28 13:49 | 63.99171 | -22.61704 | 144 ft | 16 kts | 272° |
| 2026-04-28 13:49 | 63.99175 | -22.61913 | 144 ft | 9 kts | 271° |
| 2026-04-28 13:49 | 63.99203 | -22.61993 | 144 ft | 6 kts | 356° |
| 2026-04-28 13:50 | 63.99266 | -22.61984 | 144 ft | 12 kts | 0° |
| 2026-04-28 13:50 | 63.99357 | -22.61970 | 144 ft | 13 kts | 57° |
| 2026-04-28 13:50 | 63.99323 | -22.61824 | 144 ft | 8 kts | 95° |
| 2026-04-28 13:50 | 63.99322 | -22.61801 | 144 ft | 0 kts | 90° |